^^
Saratoga-Weather Station Historical Data
Daily Summary for February 10, 2020 Units:  Metric    English   Both
Daily Weekly Monthly Yearly Custom
  High: Low: Average:
Temperature: 13 °C 7.5 °C 10.2 °C
Dew Point: 9.5 °C 4.1 °C 7 °C
Humidity: 94% 56% 82%
Wind Speed: 16.3km/h 0km/h 5.1km/h
Wind Gust: 22.5km/h - -
Wind- - West
Pressure: 1022.7 hPa 1018.6 hPa -
Precipitation: 0.0 mm    
Historical Graphs
 
 
Tabular Data for February 10, 2020
Time Temperature Dew Point Pressure Wind Wind Speed Wind Gust Humidity Rainfall Rate (Hourly) solar
00:01 10.3 °C 9.4 °C 1019.0 hPa West 3.2 km/h 6.4 km/h 94% 0.0 mm 0 W/m2
00:06 10.3 °C 9.4 °C 1019.0 hPa SW 3.2 km/h 4.8 km/h 94% 0.0 mm 0 W/m2
00:11 10.3 °C 9.4 °C 1019.0 hPa West 4.7 km/h 6.4 km/h 94% 0.0 mm 0 W/m2
00:16 10.4 °C 9.5 °C 1019.0 hPa WNW 3.2 km/h 4.8 km/h 94% 0.0 mm 0 W/m2
00:21 10.3 °C 9.4 °C 1019.0 hPa WSW 4.7 km/h 9.7 km/h 94% 0.0 mm 0 W/m2
00:26 10.4 °C 9.5 °C 1019.0 hPa WSW 3.2 km/h 4.8 km/h 94% 0.0 mm 0 W/m2
00:31 10.4 °C 9.5 °C 1019.0 hPa West 4.7 km/h 12.9 km/h 94% 0.0 mm 0 W/m2
00:36 10.4 °C 9.5 °C 1019.0 hPa WNW 6.4 km/h 6.4 km/h 94% 0.0 mm 0 W/m2
00:41 10.5 °C 9.4 °C 1019.0 hPa WNW 6.4 km/h 12.9 km/h 93% 0.0 mm 0 W/m2
00:46 10.6 °C 9.5 °C 1019.0 hPa West 3.2 km/h 6.4 km/h 93% 0.0 mm 0 W/m2
00:51 10.5 °C 9.4 °C 1019.0 hPa West 8 km/h 8 km/h 93% 0.0 mm 0 W/m2
00:56 10.4 °C 9.3 °C 1018.6 hPa WNW 1.4 km/h 6.4 km/h 93% 0.0 mm 0 W/m2
01:01 10.3 °C 9.2 °C 1018.6 hPa Calm   6.4 km/h 93% 0.0 mm 0 W/m2
01:06 10.3 °C 9.2 °C 1018.6 hPa West 3.2 km/h 6.4 km/h 93% 0.0 mm 0 W/m2
01:11 10.3 °C 9.2 °C 1018.6 hPa WSW 4.7 km/h 6.4 km/h 93% 0.0 mm 0 W/m2
01:16 10.3 °C 9.2 °C 1019.0 hPa WNW 1.4 km/h 3.2 km/h 93% 0.0 mm 0 W/m2
01:21 10.2 °C 9.1 °C 1018.6 hPa Calm   3.2 km/h 93% 0.0 mm 0 W/m2
01:26 10.1 °C 9 °C 1019.0 hPa Calm   6.4 km/h 93% 0.0 mm 0 W/m2
01:31 10.1 °C 9 °C 1019.0 hPa West 1.4 km/h 4.8 km/h 93% 0.0 mm 0 W/m2
01:36 10.1 °C 9 °C 1019.0 hPa WNW 3.2 km/h 4.8 km/h 93% 0.0 mm 0 W/m2
01:41 10 °C 8.9 °C 1019.0 hPa Calm     93% 0.0 mm 0 W/m2
01:46 9.9 °C 8.8 °C 1019.0 hPa WSW 1.4 km/h 6.4 km/h 93% 0.0 mm 0 W/m2
01:51 9.9 °C 9 °C 1019.0 hPa NW 3.2 km/h 8 km/h 94% 0.0 mm 0 W/m2
01:56 9.9 °C 9 °C 1019.0 hPa West 11.1 km/h 11.3 km/h 94% 0.0 mm 0 W/m2
02:01 10 °C 9.1 °C 1019.0 hPa WNW 3.2 km/h 8 km/h 94% 0.0 mm 0 W/m2
02:06 10.1 °C 9.2 °C 1018.6 hPa West 4.7 km/h 11.3 km/h 94% 0.0 mm 0 W/m2
02:11 10.1 °C 9.2 °C 1019.0 hPa WNW 6.4 km/h 8 km/h 94% 0.0 mm 0 W/m2
02:16 10.1 °C 9 °C 1019.0 hPa WNW 1.4 km/h 6.4 km/h 93% 0.0 mm 0 W/m2
02:21 10.1 °C 9 °C 1019.0 hPa WNW 1.4 km/h 4.8 km/h 93% 0.0 mm 0 W/m2
02:26 10.1 °C 9 °C 1019.0 hPa West 1.4 km/h 3.2 km/h 93% 0.0 mm 0 W/m2
02:31 10.1 °C 9 °C 1019.0 hPa Calm   6.4 km/h 93% 0.0 mm 0 W/m2
02:36 10 °C 8.9 °C 1019.0 hPa WNW 1.4 km/h 6.4 km/h 93% 0.0 mm 0 W/m2
02:41 10.1 °C 9 °C 1019.0 hPa West 4.7 km/h 6.4 km/h 93% 0.0 mm 0 W/m2
02:46 10.1 °C 9 °C 1019.0 hPa West 3.2 km/h 6.4 km/h 93% 0.0 mm 0 W/m2
02:52 10.1 °C 9 °C 1019.0 hPa West 1.4 km/h 4.8 km/h 93% 0.0 mm 0 W/m2
02:57 10.1 °C 9 °C 1019.0 hPa West 3.2 km/h 6.4 km/h 93% 0.0 mm 0 W/m2
03:02 10.1 °C 9 °C 1019.0 hPa West 1.4 km/h 9.7 km/h 93% 0.0 mm 0 W/m2
03:07 10.1 °C 8.9 °C 1019.0 hPa Calm   4.8 km/h 92% 0.0 mm 0 W/m2
03:12 10.1 °C 8.9 °C 1019.0 hPa West 4.7 km/h 9.7 km/h 92% 0.0 mm 0 W/m2
03:17 10.1 °C 8.9 °C 1019.0 hPa WNW 4.7 km/h 4.8 km/h 92% 0.0 mm 0 W/m2
03:22 10.1 °C 8.9 °C 1019.0 hPa West 1.4 km/h 9.7 km/h 92% 0.0 mm 0 W/m2
03:27 10.1 °C 8.9 °C 1019.0 hPa WNW 3.2 km/h 6.4 km/h 92% 0.0 mm 0 W/m2
03:32 10.1 °C 8.9 °C 1019.0 hPa WSW 1.4 km/h 6.4 km/h 92% 0.0 mm 0 W/m2
03:37 10.1 °C 8.9 °C 1019.0 hPa West 4.7 km/h 6.4 km/h 92% 0.0 mm 0 W/m2
03:42 10 °C 8.9 °C 1019.0 hPa West 9.7 km/h 9.7 km/h 93% 0.0 mm 0 W/m2
03:47 10 °C 8.8 °C 1019.0 hPa WSW 11.1 km/h 11.3 km/h 92% 0.0 mm 0 W/m2
03:52 10.1 °C 8.9 °C 1019.0 hPa WSW 4.7 km/h 9.7 km/h 92% 0.0 mm 0 W/m2
03:57 10.2 °C 9 °C 1019.0 hPa SW 13 km/h 12.9 km/h 92% 0.0 mm 0 W/m2
04:02 10.2 °C 9 °C 1019.0 hPa WNW 3.2 km/h 9.7 km/h 92% 0.0 mm 0 W/m2
04:07 10.3 °C 8.9 °C 1019.0 hPa West 9.7 km/h 14.5 km/h 91% 0.0 mm 0 W/m2
04:12 10.3 °C 8.9 °C 1019.0 hPa NW 1.4 km/h 12.9 km/h 91% 0.0 mm 0 W/m2
04:17 10.3 °C 8.9 °C 1019.0 hPa West 1.4 km/h 14.5 km/h 91% 0.0 mm 0 W/m2
04:22 10.3 °C 8.9 °C 1019.0 hPa WSW 3.2 km/h 4.8 km/h 91% 0.0 mm 0 W/m2
04:27 10.2 °C 8.8 °C 1019.0 hPa WSW 1.4 km/h 8 km/h 91% 0.0 mm 0 W/m2
04:32 10.2 °C 9 °C 1019.0 hPa West 1.4 km/h 9.7 km/h 92% 0.0 mm 0 W/m2
04:37 10.2 °C 9 °C 1019.0 hPa WSW 3.2 km/h 8 km/h 92% 0.0 mm 0 W/m2
04:42 10.1 °C 8.9 °C 1019.0 hPa WSW 3.2 km/h 12.9 km/h 92% 0.0 mm 0 W/m2
04:47 10.1 °C 8.9 °C 1019.0 hPa WNW 6.4 km/h 9.7 km/h 92% 0.0 mm 0 W/m2
04:52 10.1 °C 8.9 °C 1019.0 hPa WSW 6.4 km/h 11.3 km/h 92% 0.0 mm 0 W/m2
04:57 10.1 °C 8.9 °C 1019.0 hPa WNW 7.9 km/h 11.3 km/h 92% 0.0 mm 0 W/m2
05:02 10.1 °C 8.9 °C 1019.0 hPa WNW 1.4 km/h 11.3 km/h 92% 0.0 mm 0 W/m2
05:07 10.1 °C 8.9 °C 1019.0 hPa West 3.2 km/h 11.3 km/h 92% 0.0 mm 0 W/m2
05:12 10.1 °C 8.9 °C 1019.0 hPa West 6.4 km/h 14.5 km/h 92% 0.0 mm 0 W/m2
05:17 10.1 °C 8.9 °C 1019.3 hPa West 9.7 km/h 12.9 km/h 92% 0.0 mm 0 W/m2
05:22 10.1 °C 8.9 °C 1019.3 hPa WSW 3.2 km/h 12.9 km/h 92% 0.0 mm 0 W/m2
05:27 10.1 °C 8.9 °C 1019.3 hPa West 9.7 km/h 9.7 km/h 92% 0.0 mm 0 W/m2
05:32 10.1 °C 9 °C 1019.3 hPa West 4.7 km/h 12.9 km/h 93% 0.0 mm 0 W/m2
05:37 10.1 °C 9 °C 1019.3 hPa West 4.7 km/h 9.7 km/h 93% 0.0 mm 0 W/m2
05:42 10 °C 8.9 °C 1019.3 hPa WSW 6.4 km/h 14.5 km/h 93% 0.0 mm 0 W/m2
05:47 10 °C 8.9 °C 1019.3 hPa West 6.4 km/h 8 km/h 93% 0.0 mm 0 W/m2
05:52 9.9 °C 8.8 °C 1019.3 hPa West 6.4 km/h 9.7 km/h 93% 0.0 mm 0 W/m2
05:57 9.9 °C 8.8 °C 1019.3 hPa WNW 7.9 km/h 9.7 km/h 93% 0.0 mm 0 W/m2
06:02 9.9 °C 8.8 °C 1019.3 hPa WSW 6.4 km/h 11.3 km/h 93% 0.0 mm 0 W/m2
06:07 9.8 °C 8.7 °C 1019.3 hPa West 9.7 km/h 11.3 km/h 93% 0.0 mm 0 W/m2
06:12 9.8 °C 8.7 °C 1019.3 hPa West 6.4 km/h 9.7 km/h 93% 0.0 mm 0 W/m2
06:17 9.8 °C 8.9 °C 1019.6 hPa West 9.7 km/h 16.1 km/h 94% 0.0 mm 0 W/m2
06:22 9.8 °C 8.9 °C 1019.6 hPa WNW 4.7 km/h 6.4 km/h 94% 0.0 mm 0 W/m2
06:27 9.8 °C 8.9 °C 1019.6 hPa West 9.7 km/h 16.1 km/h 94% 0.0 mm 0 W/m2
06:32 9.8 °C 8.9 °C 1019.6 hPa WNW 1.4 km/h 11.3 km/h 94% 0.0 mm 0 W/m2
06:37 9.8 °C 8.9 °C 1019.6 hPa WNW 7.9 km/h 16.1 km/h 94% 0.0 mm 0 W/m2
06:42 9.7 °C 8.8 °C 1019.6 hPa West 4.7 km/h 8 km/h 94% 0.0 mm 0 W/m2
06:47 9.7 °C 8.6 °C 1020.0 hPa WNW 1.4 km/h 4.8 km/h 93% 0.0 mm 0 W/m2
06:52 9.7 °C 8.6 °C 1019.6 hPa WNW 4.7 km/h 11.3 km/h 93% 0.0 mm 0 W/m2
06:57 9.7 °C 8.6 °C 1019.6 hPa WNW 3.2 km/h 6.4 km/h 93% 0.0 mm 0 W/m2
07:02 9.6 °C 8.5 °C 1019.6 hPa WNW 1.4 km/h 12.9 km/h 93% 0.0 mm 0 W/m2
07:07 9.6 °C 8.5 °C 1019.6 hPa West 4.7 km/h 9.7 km/h 93% 0.0 mm 0 W/m2
07:12 9.6 °C 8.7 °C 1020.0 hPa West 6.4 km/h 12.9 km/h 94% 0.0 mm 0 W/m2
07:17 9.6 °C 8.7 °C 1020.0 hPa West 9.7 km/h 9.7 km/h 94% 0.0 mm 0 W/m2
07:22 9.6 °C 8.7 °C 1020.0 hPa West 11.1 km/h 12.9 km/h 94% 0.0 mm 0 W/m2
07:27 9.6 °C 8.7 °C 1020.0 hPa SW 7.9 km/h 14.5 km/h 94% 0.0 mm 0 W/m2
07:32 9.6 °C 8.7 °C 1020.0 hPa West 4.7 km/h 12.9 km/h 94% 0.0 mm 0 W/m2
07:37 9.6 °C 8.7 °C 1020.3 hPa WNW 9.7 km/h 14.5 km/h 94% 0.0 mm 0 W/m2
07:42 9.5 °C 8.4 °C 1020.3 hPa WNW 4.7 km/h 11.3 km/h 93% 0.0 mm 0 W/m2
07:47 9.5 °C 8.4 °C 1020.3 hPa West 4.7 km/h 9.7 km/h 93% 0.0 mm 0 W/m2
07:52 9.4 °C 8.3 °C 1020.3 hPa West 6.4 km/h 11.3 km/h 93% 0.0 mm 0 W/m2
07:57 9.4 °C 8.3 °C 1020.7 hPa SW 4.7 km/h 11.3 km/h 93% 0.0 mm 0 W/m2
08:02 9.4 °C 8.3 °C 1020.7 hPa WSW 9.7 km/h 11.3 km/h 93% 0.0 mm 5 W/m2
08:07 9.4 °C 8.3 °C 1020.7 hPa NW 6.4 km/h 9.7 km/h 93% 0.0 mm 9 W/m2
08:12 9.4 °C 8.3 °C 1020.7 hPa WNW 11.1 km/h 12.9 km/h 93% 0.0 mm 12 W/m2
08:17 9.4 °C 8.3 °C 1020.7 hPa WNW 4.7 km/h 12.9 km/h 93% 0.0 mm 16 W/m2
08:22 9.4 °C 8.3 °C 1020.7 hPa WNW 4.7 km/h 9.7 km/h 93% 0.0 mm 23 W/m2
08:27 9.4 °C 8.3 °C 1021.0 hPa West 4.7 km/h 9.7 km/h 93% 0.0 mm 25 W/m2
08:32 9.4 °C 8.3 °C 1021.0 hPa NW 7.9 km/h 11.3 km/h 93% 0.0 mm 26 W/m2
08:37 9.4 °C 8.3 °C 1021.0 hPa WSW 11.1 km/h 12.9 km/h 93% 0.0 mm 28 W/m2
08:42 9.4 °C 8.3 °C 1021.0 hPa West 4.7 km/h 11.3 km/h 93% 0.0 mm 32 W/m2
08:47 9.4 °C 8.3 °C 1021.0 hPa West 3.2 km/h 8 km/h 93% 0.0 mm 37 W/m2
08:52 9.4 °C 8.3 °C 1021.0 hPa West 4.7 km/h 11.3 km/h 93% 0.0 mm 42 W/m2
08:58 9.4 °C 8.3 °C 1021.0 hPa West 4.7 km/h 11.3 km/h 93% 0.0 mm 40 W/m2
09:03 9.3 °C 8.2 °C 1021.3 hPa WSW 7.9 km/h 12.9 km/h 93% 0.0 mm 37 W/m2
09:08 9.3 °C 8.2 °C 1021.3 hPa West 4.7 km/h 12.9 km/h 93% 0.0 mm 33 W/m2
09:13 9.3 °C 8.2 °C 1021.3 hPa West 4.7 km/h 12.9 km/h 93% 0.0 mm 30 W/m2
09:18 9.2 °C 8.1 °C 1021.3 hPa West 3.2 km/h 11.3 km/h 93% 0.0 mm 30 W/m2
09:23 9.2 °C 8.1 °C 1021.3 hPa West 3.2 km/h 6.4 km/h 93% 0.0 mm 32 W/m2
09:28 9.1 °C 8 °C 1021.3 hPa WNW 4.7 km/h 9.7 km/h 93% 0.0 mm 53 W/m2
09:33 9.1 °C 8 °C 1021.7 hPa West 3.2 km/h 9.7 km/h 93% 0.0 mm 93 W/m2
09:38 9.2 °C 8.1 °C 1021.7 hPa West 3.2 km/h 11.3 km/h 93% 0.0 mm 35 W/m2
09:43 9.2 °C 8.1 °C 1021.7 hPa West 6.4 km/h 16.1 km/h 93% 0.0 mm 65 W/m2
09:48 9.2 °C 8.1 °C 1021.7 hPa WNW 7.9 km/h 14.5 km/h 93% 0.0 mm 128 W/m2
09:53 9.3 °C 8.2 °C 1021.7 hPa WNW 6.4 km/h 16.1 km/h 93% 0.0 mm 195 W/m2
09:58 9.4 °C 8.2 °C 1021.7 hPa West 11.1 km/h 14.5 km/h 92% 0.0 mm 221 W/m2
10:03 9.7 °C 8.5 °C 1021.7 hPa WSW 11.1 km/h 12.9 km/h 92% 0.0 mm 229 W/m2
10:08 9.8 °C 8.4 °C 1022.0 hPa West 3.2 km/h 17.7 km/h 91% 0.0 mm 42 W/m2
10:13 9.9 °C 8.5 °C 1022.0 hPa West 6.4 km/h 14.5 km/h 91% 0.0 mm 311 W/m2
10:18 9.9 °C 8.3 °C 1022.0 hPa WSW 11.1 km/h 17.7 km/h 90% 0.0 mm 332 W/m2
10:23 10.2 °C 8.6 °C 1022.0 hPa NW 4.7 km/h 9.7 km/h 90% 0.0 mm 352 W/m2
10:28 10.2 °C 8.3 °C 1022.0 hPa WNW 4.7 km/h 12.9 km/h 88% 0.0 mm 336 W/m2
10:33 10.2 °C 8.1 °C 1022.0 hPa West 4.7 km/h 12.9 km/h 87% 0.0 mm 95 W/m2
10:38 10.3 °C 8.2 °C 1022.0 hPa West 9.7 km/h 14.5 km/h 87% 0.0 mm 380 W/m2
10:43 10.4 °C 8.3 °C 1022.0 hPa NW 3.2 km/h 11.3 km/h 87% 0.0 mm 403 W/m2
10:48 10.5 °C 8.3 °C 1022.0 hPa WSW 4.7 km/h 14.5 km/h 86% 0.0 mm 392 W/m2
10:53 10.4 °C 8.2 °C 1022.4 hPa NW 6.4 km/h 14.5 km/h 86% 0.0 mm 413 W/m2
10:58 10.4 °C 8 °C 1022.0 hPa West 4.7 km/h 14.5 km/h 85% 0.0 mm 410 W/m2
11:03 10.5 °C 7.9 °C 1022.4 hPa WNW 6.4 km/h 14.5 km/h 84% 0.0 mm 441 W/m2
11:08 10.6 °C 8 °C 1022.4 hPa WNW 7.9 km/h 11.3 km/h 84% 0.0 mm 427 W/m2
11:13 10.8 °C 7.9 °C 1022.4 hPa West 4.7 km/h 14.5 km/h 82% 0.0 mm 461 W/m2
11:18 10.9 °C 7.9 °C 1022.4 hPa WNW 7.9 km/h 8 km/h 82% 0.0 mm 461 W/m2
11:23 10.9 °C 7.8 °C 1022.4 hPa NW 11.1 km/h 16.1 km/h 81% 0.0 mm 60 W/m2
11:28 10.7 °C 7.2 °C 1022.4 hPa WNW 6.4 km/h 8 km/h 79% 0.0 mm 60 W/m2
11:33 10.7 °C 7.6 °C 1022.4 hPa WSW 6.4 km/h 14.5 km/h 81% 0.0 mm 506 W/m2
11:38 11.1 °C 7.8 °C 1022.4 hPa NW 6.4 km/h 12.9 km/h 80% 0.0 mm 529 W/m2
11:43 11.1 °C 7.6 °C 1022.4 hPa NW 7.9 km/h 16.1 km/h 79% 0.0 mm 527 W/m2
11:48 11.1 °C 7.6 °C 1022.4 hPa WSW 7.9 km/h 14.5 km/h 79% 0.0 mm 573 W/m2
11:53 11.2 °C 7.7 °C 1022.4 hPa NW 6.4 km/h 16.1 km/h 79% 0.0 mm 492 W/m2
11:58 11.4 °C 7.3 °C 1022.4 hPa West 3.2 km/h 19.3 km/h 76% 0.0 mm 360 W/m2
12:03 11.3 °C 7 °C 1022.4 hPa West 16.3 km/h 17.7 km/h 75% 0.0 mm 69 W/m2
12:08 11 °C 7.3 °C 1022.4 hPa WNW 4.7 km/h 19.3 km/h 78% 0.0 mm 81 W/m2
12:13 10.9 °C 7 °C 1022.4 hPa WSW 4.7 km/h 12.9 km/h 77% 0.0 mm 155 W/m2
12:18 11 °C 7.5 °C 1022.4 hPa NW 4.7 km/h 8 km/h 79% 0.0 mm 104 W/m2
12:23 11.2 °C 7.5 °C 1022.4 hPa WSW 6.4 km/h 14.5 km/h 78% 0.0 mm 125 W/m2
12:28 11.4 °C 7.7 °C 1022.4 hPa WNW 6.4 km/h 17.7 km/h 78% 0.0 mm 171 W/m2
12:33 11.7 °C 7.6 °C 1022.7 hPa WSW 11.1 km/h 14.5 km/h 76% 0.0 mm 311 W/m2
12:38 11.9 °C 7.4 °C 1022.4 hPa WNW 4.7 km/h 17.7 km/h 74% 0.0 mm 668 W/m2
12:43 12.2 °C 7.9 °C 1022.4 hPa WSW 6.4 km/h 12.9 km/h 75% 0.0 mm 671 W/m2
12:48 12.3 °C 7.8 °C 1022.7 hPa West 6.4 km/h 16.1 km/h 74% 0.0 mm 664 W/m2
12:53 12.3 °C 7.6 °C 1022.7 hPa West 6.4 km/h 14.5 km/h 73% 0.0 mm 621 W/m2
12:58 12.3 °C 7.6 °C 1022.7 hPa WNW 13 km/h 14.5 km/h 73% 0.0 mm 596 W/m2
13:03 12.2 °C 7.7 °C 1022.7 hPa West 9.7 km/h 11.3 km/h 74% 0.0 mm 599 W/m2
13:08 12.4 °C 7.7 °C 1022.7 hPa WNW 6.4 km/h 17.7 km/h 73% 0.0 mm 671 W/m2
13:13 12.4 °C 7.5 °C 1022.7 hPa West 11.1 km/h 16.1 km/h 72% 0.0 mm 737 W/m2
13:18 12.6 °C 7.9 °C 1022.7 hPa West 9.7 km/h 9.7 km/h 73% 0.0 mm 715 W/m2
13:23 12.6 °C 6.8 °C 1022.7 hPa WSW 7.9 km/h 11.3 km/h 68% 0.0 mm 668 W/m2
13:29 12.7 °C 7.2 °C 1022.7 hPa West 4.7 km/h 17.7 km/h 69% 0.0 mm 628 W/m2
13:34 12.7 °C 7.2 °C 1022.7 hPa NNW 6.4 km/h 16.1 km/h 69% 0.0 mm 603 W/m2
13:39 12.6 °C 6.6 °C 1022.7 hPa NW 13 km/h 17.7 km/h 67% 0.0 mm 72 W/m2
13:44 12.3 °C 6.1 °C 1022.7 hPa West 4.7 km/h 16.1 km/h 66% 0.0 mm 599 W/m2
13:49 12.3 °C 5.9 °C 1022.7 hPa WSW 9.7 km/h 16.1 km/h 65% 0.0 mm 125 W/m2
13:54 12.3 °C 5.7 °C 1022.7 hPa West 6.4 km/h 16.1 km/h 64% 0.0 mm 91 W/m2
13:59 12.4 °C 5.8 °C 1022.7 hPa WNW 11.1 km/h 14.5 km/h 64% 0.0 mm 76 W/m2
14:04 12.3 °C 5.7 °C 1022.7 hPa West 13 km/h 16.1 km/h 64% 0.0 mm 63 W/m2
14:09 12.1 °C 5.7 °C 1022.7 hPa WNW 6.4 km/h 11.3 km/h 65% 0.0 mm 51 W/m2
14:14 12.1 °C 5.7 °C 1022.4 hPa WNW 4.7 km/h 17.7 km/h 65% 0.0 mm 58 W/m2
14:19 12.3 °C 6.1 °C 1022.4 hPa NW 3.2 km/h 14.5 km/h 66% 0.0 mm 83 W/m2
14:24 12.5 °C 6.1 °C 1022.4 hPa NW 4.7 km/h 17.7 km/h 65% 0.0 mm 90 W/m2
14:29 12.3 °C 5.9 °C 1022.4 hPa WNW 3.2 km/h 12.9 km/h 65% 0.0 mm 98 W/m2
14:34 12.2 °C 6 °C 1022.4 hPa West 4.7 km/h 16.1 km/h 66% 0.0 mm 151 W/m2
14:39 12.4 °C 6.2 °C 1022.4 hPa West 13 km/h 17.7 km/h 66% 0.0 mm 84 W/m2
14:44 12.4 °C 6.2 °C 1022.4 hPa West 6.4 km/h 16.1 km/h 66% 0.0 mm 97 W/m2
14:49 12.3 °C 6.1 °C 1022.4 hPa West 6.4 km/h 11.3 km/h 66% 0.0 mm 90 W/m2
14:54 12.2 °C 5.8 °C 1022.4 hPa WNW 3.2 km/h 17.7 km/h 65% 0.0 mm 130 W/m2
14:59 12.1 °C 5.5 °C 1022.4 hPa WNW 11.1 km/h 14.5 km/h 64% 0.0 mm 139 W/m2
15:04 12.3 °C 5.2 °C 1022.4 hPa NW 6.4 km/h 17.7 km/h 62% 0.0 mm 114 W/m2
15:09 12.7 °C 5.1 °C 1022.4 hPa West 6.4 km/h 19.3 km/h 60% 0.0 mm 399 W/m2
15:14 12.8 °C 5.5 °C 1022.4 hPa WNW 7.9 km/h 17.7 km/h 61% 0.0 mm 381 W/m2
15:19 12.8 °C 4.5 °C 1022.4 hPa WSW 11.1 km/h 22.5 km/h 57% 0.0 mm 520 W/m2
15:24 12.8 °C 5 °C 1022.4 hPa WNW 4.7 km/h 17.7 km/h 59% 0.0 mm 431 W/m2
15:29 12.8 °C 5.2 °C 1022.4 hPa WNW 14.3 km/h 22.5 km/h 60% 0.0 mm 406 W/m2
15:34 12.8 °C 4.7 °C 1022.0 hPa WSW 7.9 km/h 19.3 km/h 58% 0.0 mm 478 W/m2
15:39 12.8 °C 4.2 °C 1022.0 hPa WSW 6.4 km/h 16.1 km/h 56% 0.0 mm 406 W/m2
15:44 13 °C 4.9 °C 1022.0 hPa NW 14.3 km/h 16.1 km/h 58% 0.0 mm 163 W/m2
15:49 12.8 °C 5 °C 1022.0 hPa WNW 7.9 km/h 14.5 km/h 59% 0.0 mm 49 W/m2
15:54 12.4 °C 4.9 °C 1022.0 hPa SW 7.9 km/h 16.1 km/h 60% 0.0 mm 323 W/m2
15:59 12.3 °C 5.2 °C 1022.0 hPa West 6.4 km/h 11.3 km/h 62% 0.0 mm 424 W/m2
16:04 12.3 °C 5.2 °C 1022.0 hPa SW 7.9 km/h 11.3 km/h 62% 0.0 mm 418 W/m2
16:09 12.4 °C 4.4 °C 1022.0 hPa WNW 7.9 km/h 16.1 km/h 58% 0.0 mm 406 W/m2
16:14 12.7 °C 4.9 °C 1022.0 hPa NNW 9.7 km/h 17.7 km/h 59% 0.0 mm 432 W/m2
16:19 12.7 °C 4.9 °C 1022.0 hPa WNW 7.9 km/h 14.5 km/h 59% 0.0 mm 392 W/m2
16:24 12.7 °C 4.6 °C 1022.0 hPa West 6.4 km/h 16.1 km/h 58% 0.0 mm 355 W/m2
16:29 12.4 °C 4.4 °C 1022.0 hPa WSW 14.3 km/h 16.1 km/h 58% 0.0 mm 53 W/m2
16:34 12.2 °C 4.9 °C 1022.0 hPa WSW 16.3 km/h 16.1 km/h 61% 0.0 mm 42 W/m2
16:39 12 °C 5.4 °C 1022.0 hPa WSW 7.9 km/h 9.7 km/h 64% 0.0 mm 338 W/m2
16:44 11.9 °C 5.1 °C 1022.0 hPa West 11.1 km/h 22.5 km/h 63% 0.0 mm 320 W/m2
16:49 12.1 °C 5 °C 1022.0 hPa West 11.1 km/h 14.5 km/h 62% 0.0 mm 320 W/m2
16:54 12 °C 4.7 °C 1022.0 hPa West 6.4 km/h 22.5 km/h 61% 0.0 mm 42 W/m2
16:59 11.9 °C 4.8 °C 1022.0 hPa WSW 4.7 km/h 11.3 km/h 62% 0.0 mm 288 W/m2
17:04 11.8 °C 4.8 °C 1022.0 hPa NW 6.4 km/h 19.3 km/h 62% 0.0 mm 185 W/m2
17:09 11.8 °C 4.5 °C 1021.7 hPa West 3.2 km/h 14.5 km/h 61% 0.0 mm 51 W/m2
17:14 11.9 °C 4.8 °C 1021.7 hPa WSW 4.7 km/h 19.3 km/h 62% 0.0 mm 42 W/m2
17:19 11.9 °C 5.1 °C 1021.7 hPa WNW 7.9 km/h 11.3 km/h 63% 0.0 mm 54 W/m2
17:24 11.8 °C 5 °C 1021.7 hPa WSW 4.7 km/h 12.9 km/h 63% 0.0 mm 42 W/m2
17:29 11.7 °C 4.7 °C 1021.7 hPa WNW 3.2 km/h 14.5 km/h 62% 0.0 mm 32 W/m2
17:34 11.6 °C 4.3 °C 1021.7 hPa West 4.7 km/h 11.3 km/h 61% 0.0 mm 30 W/m2
17:39 11.4 °C 4.1 °C 1021.7 hPa West 4.7 km/h 8 km/h 61% 0.0 mm 28 W/m2
17:44 11.3 °C 4.3 °C 1021.7 hPa West 6.4 km/h 6.4 km/h 62% 0.0 mm 26 W/m2
17:49 11.2 °C 4.4 °C 1021.7 hPa West 6.4 km/h 11.3 km/h 63% 0.0 mm 25 W/m2
17:54 11.2 °C 4.6 °C 1021.7 hPa WSW 1.4 km/h 8 km/h 64% 0.0 mm 23 W/m2
17:59 11.1 °C 4.5 °C 1021.7 hPa SW 4.7 km/h 9.7 km/h 64% 0.0 mm 23 W/m2
18:04 11.1 °C 4.5 °C 1021.7 hPa West 3.2 km/h 9.7 km/h 64% 0.0 mm 21 W/m2
18:09 10.9 °C 4.8 °C 1021.7 hPa WSW 6.4 km/h 8 km/h 66% 0.0 mm 23 W/m2
18:14 10.8 °C 4.7 °C 1021.7 hPa WSW 1.4 km/h 8 km/h 66% 0.0 mm 23 W/m2
18:19 10.7 °C 4.8 °C 1021.7 hPa WSW 3.2 km/h 8 km/h 67% 0.0 mm 23 W/m2
18:24 10.6 °C 5.1 °C 1021.7 hPa WSW 1.4 km/h 4.8 km/h 69% 0.0 mm 21 W/m2
18:29 10.5 °C 4.6 °C 1021.7 hPa WNW 4.7 km/h 9.7 km/h 67% 0.0 mm 23 W/m2
18:34 10.4 °C 4.7 °C 1021.7 hPa Calm   4.8 km/h 68% 0.0 mm 21 W/m2
18:39 10.3 °C 4.9 °C 1021.7 hPa WSW 1.4 km/h 6.4 km/h 69% 0.0 mm 16 W/m2
18:44 10.2 °C 5.4 °C 1021.7 hPa Calm   1.6 km/h 72% 0.0 mm 11 W/m2
18:49 10.1 °C 5.7 °C 1021.7 hPa Calm   1.6 km/h 74% 0.0 mm 7 W/m2
18:54 9.8 °C 5.6 °C 1021.7 hPa Calm   1.6 km/h 75% 0.0 mm 0 W/m2
18:59 9.6 °C 5.6 °C 1021.7 hPa Calm   3.2 km/h 76% 0.0 mm 0 W/m2
19:04 9.3 °C 5.7 °C 1021.7 hPa WSW 1.4 km/h 3.2 km/h 78% 0.0 mm 0 W/m2
19:09 9.1 °C 5.7 °C 1021.7 hPa WSW 1.4 km/h 3.2 km/h 79% 0.0 mm 0 W/m2
19:14 8.8 °C 5.4 °C 1021.7 hPa WSW 1.4 km/h 3.2 km/h 79% 0.0 mm 0 W/m2
19:19 8.7 °C 5.3 °C 1021.7 hPa Calm   4.8 km/h 79% 0.0 mm 0 W/m2
19:24 8.8 °C 5.5 °C 1021.7 hPa Calm   3.2 km/h 80% 0.0 mm 0 W/m2
19:29 8.8 °C 5.5 °C 1021.7 hPa Calm   1.6 km/h 80% 0.0 mm 0 W/m2
19:35 8.7 °C 5.4 °C 1021.7 hPa Calm   4.8 km/h 80% 0.0 mm 0 W/m2
19:40 8.7 °C 5.4 °C 1021.7 hPa SW 1.4 km/h 4.8 km/h 80% 0.0 mm 0 W/m2
19:45 8.6 °C 5.3 °C 1021.7 hPa Calm   3.2 km/h 80% 0.0 mm 0 W/m2
19:50 8.6 °C 5.2 °C 1021.7 hPa Calm   4.8 km/h 79% 0.0 mm 0 W/m2
19:55 8.6 °C 5.2 °C 1021.7 hPa NW 6.4 km/h 9.7 km/h 79% 0.0 mm 0 W/m2
20:00 8.7 °C 5.1 °C 1021.7 hPa WSW 1.4 km/h 4.8 km/h 78% 0.0 mm 0 W/m2
20:05 8.7 °C 4.9 °C 1021.7 hPa WSW 1.4 km/h 6.4 km/h 77% 0.0 mm 0 W/m2
20:10 8.8 °C 5 °C 1021.7 hPa West 1.4 km/h 4.8 km/h 77% 0.0 mm 0 W/m2
20:15 8.8 °C 4.8 °C 1021.7 hPa WSW 1.4 km/h 4.8 km/h 76% 0.0 mm 0 W/m2
20:20 8.9 °C 4.7 °C 1021.7 hPa WSW 7.9 km/h 8 km/h 75% 0.0 mm 0 W/m2
20:25 9 °C 5 °C 1021.7 hPa West 3.2 km/h 6.4 km/h 76% 0.0 mm 0 W/m2
20:30 8.9 °C 4.7 °C 1021.7 hPa West 4.7 km/h 12.9 km/h 75% 0.0 mm 0 W/m2
20:35 9 °C 4.8 °C 1021.7 hPa West 1.4 km/h 9.7 km/h 75% 0.0 mm 0 W/m2
20:40 8.9 °C 4.9 °C 1021.7 hPa West 3.2 km/h 12.9 km/h 76% 0.0 mm 0 W/m2
20:45 8.8 °C 4.8 °C 1021.7 hPa West 4.7 km/h 6.4 km/h 76% 0.0 mm 0 W/m2
20:50 8.8 °C 4.8 °C 1021.7 hPa NW 3.2 km/h 8 km/h 76% 0.0 mm 0 W/m2
20:55 8.8 °C 4.8 °C 1021.7 hPa WNW 1.4 km/h 3.2 km/h 76% 0.0 mm 0 W/m2
21:00 8.8 °C 4.8 °C 1021.7 hPa SW 3.2 km/h 8 km/h 76% 0.0 mm 0 W/m2
21:05 8.8 °C 4.8 °C 1021.7 hPa West 1.4 km/h 3.2 km/h 76% 0.0 mm 0 W/m2
21:10 8.7 °C 5.1 °C 1021.7 hPa Calm   4.8 km/h 78% 0.0 mm 0 W/m2
21:15 8.6 °C 5 °C 1021.7 hPa WNW 6.4 km/h 8 km/h 78% 0.0 mm 0 W/m2
21:20 8.5 °C 5.1 °C 1021.7 hPa Calm   3.2 km/h 79% 0.0 mm 0 W/m2
21:25 8.4 °C 4.8 °C 1021.7 hPa Calm   1.6 km/h 78% 0.0 mm 0 W/m2
21:30 8.3 °C 5.1 °C 1021.7 hPa Calm   3.2 km/h 80% 0.0 mm 0 W/m2
21:35 8.1 °C 5 °C 1021.7 hPa West 1.4 km/h 4.8 km/h 81% 0.0 mm 0 W/m2
21:41 7.9 °C 5 °C 1021.7 hPa WSW 1.4 km/h 4.8 km/h 82% 0.0 mm 0 W/m2
21:46 7.9 °C 5 °C 1021.7 hPa Calm     82% 0.0 mm 0 W/m2
21:51 7.7 °C 5 °C 1021.7 hPa Calm   4.8 km/h 83% 0.0 mm 0 W/m2
21:56 7.6 °C 5.1 °C 1021.7 hPa SW 1.4 km/h 6.4 km/h 84% 0.0 mm 0 W/m2
22:01 7.5 °C 4.8 °C 1021.7 hPa Calm   4.8 km/h 83% 0.0 mm 0 W/m2
22:06 7.6 °C 4.9 °C 1021.7 hPa West 4.7 km/h 9.7 km/h 83% 0.0 mm 0 W/m2
22:11 7.8 °C 4.9 °C 1021.7 hPa Calm   4.8 km/h 82% 0.0 mm 0 W/m2
22:16 7.9 °C 4.8 °C 1021.7 hPa WSW 1.4 km/h 4.8 km/h 81% 0.0 mm 0 W/m2
22:21 7.9 °C 4.8 °C 1021.3 hPa WSW 1.4 km/h 3.2 km/h 81% 0.0 mm 0 W/m2
22:26 7.9 °C 4.8 °C 1021.3 hPa WSW 3.2 km/h 4.8 km/h 81% 0.0 mm 0 W/m2
22:31 7.9 °C 4.8 °C 1021.3 hPa WNW 1.4 km/h 6.4 km/h 81% 0.0 mm 0 W/m2
22:36 7.9 °C 4.8 °C 1021.3 hPa NW 3.2 km/h 14.5 km/h 81% 0.0 mm 0 W/m2
22:41 7.9 °C 4.8 °C 1021.3 hPa WSW 3.2 km/h 9.7 km/h 81% 0.0 mm 0 W/m2
22:46 8 °C 4.9 °C 1021.3 hPa WSW 4.7 km/h 14.5 km/h 81% 0.0 mm 0 W/m2
22:51 8.1 °C 5 °C 1021.3 hPa WNW 6.4 km/h 11.3 km/h 81% 0.0 mm 0 W/m2
22:56 8.1 °C 5 °C 1021.3 hPa SW 7.9 km/h 9.7 km/h 81% 0.0 mm 0 W/m2
23:01 8 °C 4.9 °C 1021.3 hPa WSW 3.2 km/h 8 km/h 81% 0.0 mm 0 W/m2
23:06 7.9 °C 4.8 °C 1021.3 hPa SW 3.2 km/h 12.9 km/h 81% 0.0 mm 0 W/m2
23:11 7.9 °C 4.8 °C 1021.3 hPa West 4.7 km/h 12.9 km/h 81% 0.0 mm 0 W/m2
23:16 7.9 °C 5 °C 1021.3 hPa WNW 4.7 km/h 9.7 km/h 82% 0.0 mm 0 W/m2
23:21 7.9 °C 5 °C 1021.3 hPa SW 6.4 km/h 12.9 km/h 82% 0.0 mm 0 W/m2
23:26 7.9 °C 5 °C 1021.3 hPa West 3.2 km/h 9.7 km/h 82% 0.0 mm 0 W/m2
23:31 8 °C 5.1 °C 1021.3 hPa West 3.2 km/h 14.5 km/h 82% 0.0 mm 0 W/m2
23:36 8 °C 5.1 °C 1021.3 hPa West 4.7 km/h 11.3 km/h 82% 0.0 mm 0 W/m2
23:41 7.9 °C 5 °C 1021.0 hPa WSW 3.2 km/h 9.7 km/h 82% 0.0 mm 0 W/m2
23:46 7.9 °C 5 °C 1021.0 hPa West 13 km/h 16.1 km/h 82% 0.0 mm 0 W/m2
23:51 7.8 °C 4.9 °C 1021.0 hPa West 4.7 km/h 9.7 km/h 82% 0.0 mm 0 W/m2
23:56 7.8 °C 5.1 °C 1021.0 hPa WSW 3.2 km/h 16.1 km/h 83% 0.0 mm 0 W/m2
Juneau County Weather
Compliments of Weather Underground - 4 mb